sensor_id;sensor_type;location;lat;lon;timestamp;P1;durP1;ratioP1;P2;durP2;ratioP2
56413;SDS011;42318;48.452;19.526;2024-01-11T00:02:52;6.43;;;4.20;;
56413;SDS011;42318;48.452;19.526;2024-01-11T00:05:53;5.40;;;4.22;;
56413;SDS011;42318;48.452;19.526;2024-01-11T00:08:53;4.97;;;3.85;;
56413;SDS011;42318;48.452;19.526;2024-01-11T00:11:54;5.13;;;3.53;;
56413;SDS011;42318;48.452;19.526;2024-01-11T00:14:55;5.53;;;4.20;;
56413;SDS011;42318;48.452;19.526;2024-01-11T00:17:55;4.97;;;4.20;;
56413;SDS011;42318;48.452;19.526;2024-01-11T00:20:56;5.38;;;3.67;;
56413;SDS011;42318;48.452;19.526;2024-01-11T00:23:57;4.78;;;3.58;;
56413;SDS011;42318;48.452;19.526;2024-01-11T00:26:57;5.43;;;3.78;;
56413;SDS011;42318;48.452;19.526;2024-01-11T00:29:58;4.97;;;3.70;;
56413;SDS011;42318;48.452;19.526;2024-01-11T00:32:58;4.97;;;3.63;;
56413;SDS011;42318;48.452;19.526;2024-01-11T00:35:59;4.95;;;3.83;;
56413;SDS011;42318;48.452;19.526;2024-01-11T00:39:00;4.47;;;3.47;;
56413;SDS011;42318;48.452;19.526;2024-01-11T00:42:00;5.55;;;3.78;;
56413;SDS011;42318;48.452;19.526;2024-01-11T00:45:02;4.65;;;3.65;;
56413;SDS011;42318;48.452;19.526;2024-01-11T00:48:03;5.30;;;4.00;;
56413;SDS011;42318;48.452;19.526;2024-01-11T00:51:04;5.50;;;3.90;;
56413;SDS011;42318;48.452;19.526;2024-01-11T00:54:05;5.03;;;3.97;;
56413;SDS011;42318;48.452;19.526;2024-01-11T00:57:06;4.55;;;3.65;;
56413;SDS011;42318;48.452;19.526;2024-01-11T01:00:07;5.65;;;4.13;;
56413;SDS011;42318;48.452;19.526;2024-01-11T01:03:08;4.90;;;3.58;;
56413;SDS011;42318;48.452;19.526;2024-01-11T01:06:09;5.13;;;3.47;;
56413;SDS011;42318;48.452;19.526;2024-01-11T01:09:09;5.15;;;3.90;;
56413;SDS011;42318;48.452;19.526;2024-01-11T01:12:10;4.28;;;3.38;;
56413;SDS011;42318;48.452;19.526;2024-01-11T01:15:10;5.68;;;3.97;;
56413;SDS011;42318;48.452;19.526;2024-01-11T01:18:11;5.30;;;3.80;;
56413;SDS011;42318;48.452;19.526;2024-01-11T01:21:12;5.63;;;4.00;;
56413;SDS011;42318;48.452;19.526;2024-01-11T01:24:13;4.55;;;3.55;;
56413;SDS011;42318;48.452;19.526;2024-01-11T01:27:13;8.18;;;3.33;;
56413;SDS011;42318;48.452;19.526;2024-01-11T01:30:14;5.28;;;3.80;;
56413;SDS011;42318;48.452;19.526;2024-01-11T01:33:14;4.00;;;3.35;;
56413;SDS011;42318;48.452;19.526;2024-01-11T01:36:15;4.22;;;3.35;;
56413;SDS011;42318;48.452;19.526;2024-01-11T01:39:16;4.75;;;3.83;;
56413;SDS011;42318;48.452;19.526;2024-01-11T01:42:17;4.45;;;3.47;;
56413;SDS011;42318;48.452;19.526;2024-01-11T01:45:17;5.15;;;3.95;;
56413;SDS011;42318;48.452;19.526;2024-01-11T01:48:18;4.15;;;3.13;;
56413;SDS011;42318;48.452;19.526;2024-01-11T01:51:19;5.03;;;3.50;;
56413;SDS011;42318;48.452;19.526;2024-01-11T01:54:21;5.15;;;3.75;;
56413;SDS011;42318;48.452;19.526;2024-01-11T01:57:23;4.93;;;3.20;;
56413;SDS011;42318;48.452;19.526;2024-01-11T02:00:23;5.70;;;4.00;;
56413;SDS011;42318;48.452;19.526;2024-01-11T02:03:25;4.50;;;3.20;;
56413;SDS011;42318;48.452;19.526;2024-01-11T02:06:28;4.85;;;3.60;;
56413;SDS011;42318;48.452;19.526;2024-01-11T02:09:32;5.30;;;3.78;;
56413;SDS011;42318;48.452;19.526;2024-01-11T02:12:34;4.22;;;3.45;;
56413;SDS011;42318;48.452;19.526;2024-01-11T02:15:36;4.93;;;3.38;;
56413;SDS011;42318;48.452;19.526;2024-01-11T02:18:37;5.20;;;3.58;;
56413;SDS011;42318;48.452;19.526;2024-01-11T02:21:37;4.32;;;3.42;;
56413;SDS011;42318;48.452;19.526;2024-01-11T02:24:39;4.70;;;3.70;;
56413;SDS011;42318;48.452;19.526;2024-01-11T02:27:49;5.03;;;3.60;;
56413;SDS011;42318;48.452;19.526;2024-01-11T02:30:50;4.85;;;3.55;;
56413;SDS011;42318;48.452;19.526;2024-01-11T02:33:53;5.32;;;3.20;;
56413;SDS011;42318;48.452;19.526;2024-01-11T02:36:56;4.95;;;3.65;;
56413;SDS011;42318;48.452;19.526;2024-01-11T02:39:58;5.28;;;3.35;;
56413;SDS011;42318;48.452;19.526;2024-01-11T02:43:02;4.88;;;3.50;;
56413;SDS011;42318;48.452;19.526;2024-01-11T02:46:07;5.72;;;3.70;;
56413;SDS011;42318;48.452;19.526;2024-01-11T02:49:08;4.97;;;3.35;;
56413;SDS011;42318;48.452;19.526;2024-01-11T02:52:09;4.22;;;3.60;;
56413;SDS011;42318;48.452;19.526;2024-01-11T02:55:09;3.80;;;3.20;;
56413;SDS011;42318;48.452;19.526;2024-01-11T02:58:10;4.53;;;3.50;;
56413;SDS011;42318;48.452;19.526;2024-01-11T03:01:11;4.78;;;3.08;;
56413;SDS011;42318;48.452;19.526;2024-01-11T03:04:11;4.63;;;3.17;;
56413;SDS011;42318;48.452;19.526;2024-01-11T03:07:12;5.47;;;3.55;;
56413;SDS011;42318;48.452;19.526;2024-01-11T03:10:12;4.60;;;3.58;;
56413;SDS011;42318;48.452;19.526;2024-01-11T03:13:13;4.15;;;3.22;;
56413;SDS011;42318;48.452;19.526;2024-01-11T03:16:14;4.63;;;3.10;;
56413;SDS011;42318;48.452;19.526;2024-01-11T03:19:15;4.40;;;3.05;;
56413;SDS011;42318;48.452;19.526;2024-01-11T03:22:15;4.38;;;3.08;;
56413;SDS011;42318;48.452;19.526;2024-01-11T03:25:16;5.05;;;3.20;;
56413;SDS011;42318;48.452;19.526;2024-01-11T03:28:17;3.88;;;3.10;;
56413;SDS011;42318;48.452;19.526;2024-01-11T03:31:17;4.30;;;3.20;;
56413;SDS011;42318;48.452;19.526;2024-01-11T03:34:18;3.78;;;3.17;;
56413;SDS011;42318;48.452;19.526;2024-01-11T03:37:19;4.47;;;3.30;;
56413;SDS011;42318;48.452;19.526;2024-01-11T03:40:19;3.50;;;2.97;;
56413;SDS011;42318;48.452;19.526;2024-01-11T03:43:20;4.28;;;3.13;;
56413;SDS011;42318;48.452;19.526;2024-01-11T03:46:20;4.55;;;3.55;;
56413;SDS011;42318;48.452;19.526;2024-01-11T03:49:21;4.50;;;3.40;;
56413;SDS011;42318;48.452;19.526;2024-01-11T03:52:22;3.78;;;2.97;;
56413;SDS011;42318;48.452;19.526;2024-01-11T03:55:22;3.92;;;3.05;;
56413;SDS011;42318;48.452;19.526;2024-01-11T03:58:23;4.32;;;3.05;;
56413;SDS011;42318;48.452;19.526;2024-01-11T04:01:24;4.30;;;3.08;;
56413;SDS011;42318;48.452;19.526;2024-01-11T04:04:24;4.13;;;3.38;;
56413;SDS011;42318;48.452;19.526;2024-01-11T04:07:26;3.90;;;2.95;;
56413;SDS011;42318;48.452;19.526;2024-01-11T04:10:26;4.32;;;3.25;;
56413;SDS011;42318;48.452;19.526;2024-01-11T04:13:27;3.58;;;3.03;;
56413;SDS011;42318;48.452;19.526;2024-01-11T04:16:27;4.60;;;3.20;;
56413;SDS011;42318;48.452;19.526;2024-01-11T04:19:28;3.78;;;3.10;;
56413;SDS011;42318;48.452;19.526;2024-01-11T04:22:29;4.07;;;3.17;;
56413;SDS011;42318;48.452;19.526;2024-01-11T04:25:29;4.70;;;3.60;;
56413;SDS011;42318;48.452;19.526;2024-01-11T04:28:30;4.38;;;3.28;;
56413;SDS011;42318;48.452;19.526;2024-01-11T04:31:31;4.35;;;3.10;;
56413;SDS011;42318;48.452;19.526;2024-01-11T04:34:32;4.13;;;2.83;;
56413;SDS011;42318;48.452;19.526;2024-01-11T04:37:32;4.10;;;3.03;;
56413;SDS011;42318;48.452;19.526;2024-01-11T04:40:34;3.42;;;2.97;;
56413;SDS011;42318;48.452;19.526;2024-01-11T04:43:44;3.47;;;2.78;;
56413;SDS011;42318;48.452;19.526;2024-01-11T04:46:45;4.32;;;3.38;;
56413;SDS011;42318;48.452;19.526;2024-01-11T04:49:46;4.03;;;3.05;;
56413;SDS011;42318;48.452;19.526;2024-01-11T04:52:46;4.97;;;3.70;;
56413;SDS011;42318;48.452;19.526;2024-01-11T04:55:47;5.05;;;3.08;;
56413;SDS011;42318;48.452;19.526;2024-01-11T04:58:47;4.28;;;3.53;;
56413;SDS011;42318;48.452;19.526;2024-01-11T05:01:48;6.55;;;3.40;;
56413;SDS011;42318;48.452;19.526;2024-01-11T05:04:49;4.53;;;3.10;;
56413;SDS011;42318;48.452;19.526;2024-01-11T05:07:49;4.15;;;3.03;;
56413;SDS011;42318;48.452;19.526;2024-01-11T05:10:50;3.97;;;3.05;;
56413;SDS011;42318;48.452;19.526;2024-01-11T05:13:51;4.43;;;3.08;;
56413;SDS011;42318;48.452;19.526;2024-01-11T05:16:51;4.13;;;3.30;;
56413;SDS011;42318;48.452;19.526;2024-01-11T05:19:52;3.58;;;2.63;;
56413;SDS011;42318;48.452;19.526;2024-01-11T05:22:53;4.35;;;3.10;;
56413;SDS011;42318;48.452;19.526;2024-01-11T05:25:53;4.18;;;3.08;;
56413;SDS011;42318;48.452;19.526;2024-01-11T05:28:54;4.30;;;3.17;;
56413;SDS011;42318;48.452;19.526;2024-01-11T05:31:54;4.38;;;3.38;;
56413;SDS011;42318;48.452;19.526;2024-01-11T05:34:55;3.95;;;3.10;;
56413;SDS011;42318;48.452;19.526;2024-01-11T05:37:56;4.03;;;2.95;;
56413;SDS011;42318;48.452;19.526;2024-01-11T05:40:57;4.78;;;3.35;;
56413;SDS011;42318;48.452;19.526;2024-01-11T05:43:57;4.07;;;3.25;;
56413;SDS011;42318;48.452;19.526;2024-01-11T05:46:58;4.57;;;3.22;;
56413;SDS011;42318;48.452;19.526;2024-01-11T05:49:59;3.92;;;3.10;;
56413;SDS011;42318;48.452;19.526;2024-01-11T05:52:59;4.38;;;3.45;;
56413;SDS011;42318;48.452;19.526;2024-01-11T05:56:00;4.15;;;3.03;;
56413;SDS011;42318;48.452;19.526;2024-01-11T05:59:00;4.55;;;3.15;;
56413;SDS011;42318;48.452;19.526;2024-01-11T06:02:01;4.07;;;2.78;;
56413;SDS011;42318;48.452;19.526;2024-01-11T06:05:02;4.15;;;3.13;;
56413;SDS011;42318;48.452;19.526;2024-01-11T06:08:03;4.20;;;2.88;;
56413;SDS011;42318;48.452;19.526;2024-01-11T06:11:04;3.90;;;2.95;;
56413;SDS011;42318;48.452;19.526;2024-01-11T06:14:04;4.32;;;3.00;;
56413;SDS011;42318;48.452;19.526;2024-01-11T06:17:05;4.43;;;3.22;;
56413;SDS011;42318;48.452;19.526;2024-01-11T06:20:06;3.85;;;2.90;;
56413;SDS011;42318;48.452;19.526;2024-01-11T06:23:06;3.80;;;2.97;;
56413;SDS011;42318;48.452;19.526;2024-01-11T06:26:07;4.65;;;3.45;;
56413;SDS011;42318;48.452;19.526;2024-01-11T06:29:08;3.65;;;2.67;;
56413;SDS011;42318;48.452;19.526;2024-01-11T06:32:08;4.20;;;3.20;;
56413;SDS011;42318;48.452;19.526;2024-01-11T06:35:09;3.60;;;2.92;;
56413;SDS011;42318;48.452;19.526;2024-01-11T06:38:10;4.38;;;3.00;;
56413;SDS011;42318;48.452;19.526;2024-01-11T06:41:10;4.35;;;3.22;;
56413;SDS011;42318;48.452;19.526;2024-01-11T06:44:11;4.82;;;3.35;;
56413;SDS011;42318;48.452;19.526;2024-01-11T06:47:12;4.38;;;2.75;;
56413;SDS011;42318;48.452;19.526;2024-01-11T06:50:12;3.90;;;2.90;;
56413;SDS011;42318;48.452;19.526;2024-01-11T06:53:13;5.55;;;3.22;;
56413;SDS011;42318;48.452;19.526;2024-01-11T06:56:18;4.65;;;3.38;;
56413;SDS011;42318;48.452;19.526;2024-01-11T06:59:20;4.38;;;3.20;;
56413;SDS011;42318;48.452;19.526;2024-01-11T07:02:21;4.00;;;3.13;;
56413;SDS011;42318;48.452;19.526;2024-01-11T07:05:22;4.95;;;2.97;;
56413;SDS011;42318;48.452;19.526;2024-01-11T07:08:23;3.85;;;3.22;;
56413;SDS011;42318;48.452;19.526;2024-01-11T07:11:23;3.95;;;3.03;;
56413;SDS011;42318;48.452;19.526;2024-01-11T07:14:24;4.00;;;3.22;;
56413;SDS011;42318;48.452;19.526;2024-01-11T07:17:24;5.57;;;3.40;;
56413;SDS011;42318;48.452;19.526;2024-01-11T07:20:25;4.18;;;2.90;;
56413;SDS011;42318;48.452;19.526;2024-01-11T07:23:26;5.38;;;3.13;;
56413;SDS011;42318;48.452;19.526;2024-01-11T07:26:27;4.38;;;2.92;;
56413;SDS011;42318;48.452;19.526;2024-01-11T07:29:28;4.57;;;3.45;;
56413;SDS011;42318;48.452;19.526;2024-01-11T07:32:28;5.85;;;3.40;;
56413;SDS011;42318;48.452;19.526;2024-01-11T07:35:29;4.13;;;3.10;;
56413;SDS011;42318;48.452;19.526;2024-01-11T07:38:29;4.53;;;3.22;;
56413;SDS011;42318;48.452;19.526;2024-01-11T07:41:30;4.25;;;3.22;;
56413;SDS011;42318;48.452;19.526;2024-01-11T07:44:31;4.75;;;3.22;;
56413;SDS011;42318;48.452;19.526;2024-01-11T07:47:32;4.10;;;3.50;;
56413;SDS011;42318;48.452;19.526;2024-01-11T07:50:34;4.72;;;3.42;;
56413;SDS011;42318;48.452;19.526;2024-01-11T07:53:35;4.82;;;3.53;;
56413;SDS011;42318;48.452;19.526;2024-01-11T07:56:36;4.15;;;3.30;;
56413;SDS011;42318;48.452;19.526;2024-01-11T07:59:36;4.78;;;3.80;;
56413;SDS011;42318;48.452;19.526;2024-01-11T08:02:37;4.85;;;3.72;;
56413;SDS011;42318;48.452;19.526;2024-01-11T08:05:38;4.93;;;3.50;;
56413;SDS011;42318;48.452;19.526;2024-01-11T08:08:39;5.68;;;4.43;;
56413;SDS011;42318;48.452;19.526;2024-01-11T08:11:40;5.10;;;4.05;;
56413;SDS011;42318;48.452;19.526;2024-01-11T08:14:42;4.93;;;3.80;;
56413;SDS011;42318;48.452;19.526;2024-01-11T08:17:45;6.47;;;4.82;;
56413;SDS011;42318;48.452;19.526;2024-01-11T08:20:46;5.63;;;4.20;;
56413;SDS011;42318;48.452;19.526;2024-01-11T08:23:46;5.70;;;4.25;;
56413;SDS011;42318;48.452;19.526;2024-01-11T08:26:49;6.63;;;4.95;;
56413;SDS011;42318;48.452;19.526;2024-01-11T08:29:49;6.05;;;4.72;;
56413;SDS011;42318;48.452;19.526;2024-01-11T08:32:50;6.13;;;4.35;;
56413;SDS011;42318;48.452;19.526;2024-01-11T08:35:51;6.50;;;4.72;;
56413;SDS011;42318;48.452;19.526;2024-01-11T08:38:51;6.00;;;4.47;;
56413;SDS011;42318;48.452;19.526;2024-01-11T08:41:52;6.18;;;4.90;;
56413;SDS011;42318;48.452;19.526;2024-01-11T08:44:53;6.97;;;4.90;;
56413;SDS011;42318;48.452;19.526;2024-01-11T08:47:53;6.32;;;4.75;;
56413;SDS011;42318;48.452;19.526;2024-01-11T08:50:54;7.43;;;5.45;;
56413;SDS011;42318;48.452;19.526;2024-01-11T08:53:55;5.75;;;4.60;;
56413;SDS011;42318;48.452;19.526;2024-01-11T08:56:56;6.97;;;5.00;;
56413;SDS011;42318;48.452;19.526;2024-01-11T08:59:56;7.78;;;5.32;;
56413;SDS011;42318;48.452;19.526;2024-01-11T09:02:57;7.22;;;4.90;;
56413;SDS011;42318;48.452;19.526;2024-01-11T09:05:58;6.88;;;4.78;;
56413;SDS011;42318;48.452;19.526;2024-01-11T09:08:58;6.72;;;5.03;;
56413;SDS011;42318;48.452;19.526;2024-01-11T09:11:59;6.72;;;5.10;;
56413;SDS011;42318;48.452;19.526;2024-01-11T09:15:00;6.43;;;4.88;;
56413;SDS011;42318;48.452;19.526;2024-01-11T09:18:01;6.43;;;4.60;;
56413;SDS011;42318;48.452;19.526;2024-01-11T09:21:01;7.97;;;5.40;;
56413;SDS011;42318;48.452;19.526;2024-01-11T09:24:04;6.93;;;5.15;;
56413;SDS011;42318;48.452;19.526;2024-01-11T09:27:04;7.07;;;5.07;;
56413;SDS011;42318;48.452;19.526;2024-01-11T09:30:05;6.35;;;5.18;;
56413;SDS011;42318;48.452;19.526;2024-01-11T09:33:07;7.55;;;5.50;;
56413;SDS011;42318;48.452;19.526;2024-01-11T09:36:07;7.18;;;5.30;;
56413;SDS011;42318;48.452;19.526;2024-01-11T09:39:08;7.88;;;5.65;;
56413;SDS011;42318;48.452;19.526;2024-01-11T09:42:09;7.68;;;5.22;;
56413;SDS011;42318;48.452;19.526;2024-01-11T09:45:12;6.55;;;5.30;;
56413;SDS011;42318;48.452;19.526;2024-01-11T09:48:16;7.07;;;5.47;;
56413;SDS011;42318;48.452;19.526;2024-01-11T09:51:17;7.32;;;5.53;;
56413;SDS011;42318;48.452;19.526;2024-01-11T09:54:18;6.55;;;5.45;;
56413;SDS011;42318;48.452;19.526;2024-01-11T09:57:24;7.18;;;5.13;;
56413;SDS011;42318;48.452;19.526;2024-01-11T10:00:26;6.82;;;5.22;;
56413;SDS011;42318;48.452;19.526;2024-01-11T10:03:29;6.93;;;5.30;;
56413;SDS011;42318;48.452;19.526;2024-01-11T10:06:31;7.05;;;5.50;;
56413;SDS011;42318;48.452;19.526;2024-01-11T10:09:34;5.90;;;4.97;;
56413;SDS011;42318;48.452;19.526;2024-01-11T10:12:35;7.10;;;5.20;;
56413;SDS011;42318;48.452;19.526;2024-01-11T10:15:37;8.40;;;6.00;;
56413;SDS011;42318;48.452;19.526;2024-01-11T10:18:37;6.13;;;4.90;;
56413;SDS011;42318;48.452;19.526;2024-01-11T10:21:38;7.65;;;5.90;;
56413;SDS011;42318;48.452;19.526;2024-01-11T10:24:39;8.07;;;5.93;;
56413;SDS011;42318;48.452;19.526;2024-01-11T10:27:40;8.68;;;6.03;;
56413;SDS011;42318;48.452;19.526;2024-01-11T10:30:45;9.10;;;5.97;;
56413;SDS011;42318;48.452;19.526;2024-01-11T10:33:47;6.85;;;5.22;;
56413;SDS011;42318;48.452;19.526;2024-01-11T10:36:47;7.63;;;5.28;;
56413;SDS011;42318;48.452;19.526;2024-01-11T10:39:48;8.15;;;5.78;;
56413;SDS011;42318;48.452;19.526;2024-01-11T10:42:51;7.28;;;5.57;;
56413;SDS011;42318;48.452;19.526;2024-01-11T10:45:52;7.93;;;6.00;;
56413;SDS011;42318;48.452;19.526;2024-01-11T10:48:59;8.63;;;5.97;;
56413;SDS011;42318;48.452;19.526;2024-01-11T10:52:04;7.63;;;5.93;;
56413;SDS011;42318;48.452;19.526;2024-01-11T10:55:07;9.07;;;6.32;;
56413;SDS011;42318;48.452;19.526;2024-01-11T10:58:08;7.55;;;6.45;;
56413;SDS011;42318;48.452;19.526;2024-01-11T11:01:11;8.00;;;6.18;;
56413;SDS011;42318;48.452;19.526;2024-01-11T11:04:13;8.80;;;5.88;;
56413;SDS011;42318;48.452;19.526;2024-01-11T11:07:15;11.23;;;6.28;;
56413;SDS011;42318;48.452;19.526;2024-01-11T11:10:19;7.10;;;6.15;;
56413;SDS011;42318;48.452;19.526;2024-01-11T11:13:22;8.15;;;5.95;;
56413;SDS011;42318;48.452;19.526;2024-01-11T11:16:23;7.75;;;6.30;;
56413;SDS011;42318;48.452;19.526;2024-01-11T11:19:25;10.30;;;5.55;;
56413;SDS011;42318;48.452;19.526;2024-01-11T11:22:33;8.38;;;6.07;;
56413;SDS011;42318;48.452;19.526;2024-01-11T11:25:35;7.05;;;5.20;;
56413;SDS011;42318;48.452;19.526;2024-01-11T11:28:36;8.70;;;5.57;;
56413;SDS011;42318;48.452;19.526;2024-01-11T11:31:46;7.03;;;5.43;;
56413;SDS011;42318;48.452;19.526;2024-01-11T11:34:55;11.40;;;6.47;;
56413;SDS011;42318;48.452;19.526;2024-01-11T11:37:56;6.97;;;5.85;;
56413;SDS011;42318;48.452;19.526;2024-01-11T11:40:58;7.35;;;5.75;;
56413;SDS011;42318;48.452;19.526;2024-01-11T11:44:03;7.95;;;5.80;;
56413;SDS011;42318;48.452;19.526;2024-01-11T11:47:20;8.65;;;6.22;;
56413;SDS011;42318;48.452;19.526;2024-01-11T11:50:22;7.22;;;5.88;;
56413;SDS011;42318;48.452;19.526;2024-01-11T11:53:24;7.55;;;5.60;;
56413;SDS011;42318;48.452;19.526;2024-01-11T11:56:24;6.53;;;5.82;;
56413;SDS011;42318;48.452;19.526;2024-01-11T11:59:25;8.30;;;6.13;;
56413;SDS011;42318;48.452;19.526;2024-01-11T12:02:27;9.85;;;5.95;;
56413;SDS011;42318;48.452;19.526;2024-01-11T12:05:27;7.32;;;6.00;;
56413;SDS011;42318;48.452;19.526;2024-01-11T12:08:28;7.68;;;5.50;;
56413;SDS011;42318;48.452;19.526;2024-01-11T12:11:29;7.50;;;5.90;;
56413;SDS011;42318;48.452;19.526;2024-01-11T12:14:29;8.90;;;6.47;;
56413;SDS011;42318;48.452;19.526;2024-01-11T12:17:30;7.28;;;5.88;;
56413;SDS011;42318;48.452;19.526;2024-01-11T12:20:31;8.05;;;6.47;;
56413;SDS011;42318;48.452;19.526;2024-01-11T12:23:32;6.88;;;5.85;;
56413;SDS011;42318;48.452;19.526;2024-01-11T12:26:34;8.20;;;6.22;;
56413;SDS011;42318;48.452;19.526;2024-01-11T12:29:38;8.68;;;5.88;;
56413;SDS011;42318;48.452;19.526;2024-01-11T12:32:39;8.05;;;6.05;;
56413;SDS011;42318;48.452;19.526;2024-01-11T12:35:40;8.88;;;5.82;;
56413;SDS011;42318;48.452;19.526;2024-01-11T12:38:46;9.48;;;6.05;;
56413;SDS011;42318;48.452;19.526;2024-01-11T12:41:49;7.38;;;5.53;;
56413;SDS011;42318;48.452;19.526;2024-01-11T12:44:51;11.57;;;6.72;;
56413;SDS011;42318;48.452;19.526;2024-01-11T12:47:52;7.72;;;5.78;;
56413;SDS011;42318;48.452;19.526;2024-01-11T12:50:54;8.75;;;5.80;;
56413;SDS011;42318;48.452;19.526;2024-01-11T12:53:55;9.23;;;6.63;;
56413;SDS011;42318;48.452;19.526;2024-01-11T12:56:57;7.30;;;5.60;;
56413;SDS011;42318;48.452;19.526;2024-01-11T13:00:10;8.20;;;5.90;;
56413;SDS011;42318;48.452;19.526;2024-01-11T13:03:11;8.55;;;5.70;;
56413;SDS011;42318;48.452;19.526;2024-01-11T13:06:12;7.90;;;5.55;;
56413;SDS011;42318;48.452;19.526;2024-01-11T13:09:13;11.50;;;6.13;;
56413;SDS011;42318;48.452;19.526;2024-01-11T13:12:14;8.27;;;5.60;;
56413;SDS011;42318;48.452;19.526;2024-01-11T13:15:15;14.85;;;6.40;;
56413;SDS011;42318;48.452;19.526;2024-01-11T13:18:16;13.23;;;6.60;;
56413;SDS011;42318;48.452;19.526;2024-01-11T13:21:17;8.07;;;6.65;;
56413;SDS011;42318;48.452;19.526;2024-01-11T13:24:18;8.02;;;6.10;;
56413;SDS011;42318;48.452;19.526;2024-01-11T13:27:18;8.45;;;5.97;;
56413;SDS011;42318;48.452;19.526;2024-01-11T13:30:19;8.52;;;6.68;;
56413;SDS011;42318;48.452;19.526;2024-01-11T13:33:20;9.13;;;6.05;;
56413;SDS011;42318;48.452;19.526;2024-01-11T13:36:23;7.55;;;6.38;;
56413;SDS011;42318;48.452;19.526;2024-01-11T13:39:23;12.10;;;6.18;;
56413;SDS011;42318;48.452;19.526;2024-01-11T13:42:25;11.43;;;6.40;;
56413;SDS011;42318;48.452;19.526;2024-01-11T13:45:26;8.98;;;6.40;;
56413;SDS011;42318;48.452;19.526;2024-01-11T13:48:27;8.32;;;6.30;;
56413;SDS011;42318;48.452;19.526;2024-01-11T13:51:27;7.63;;;5.97;;
56413;SDS011;42318;48.452;19.526;2024-01-11T13:54:28;7.50;;;6.25;;
56413;SDS011;42318;48.452;19.526;2024-01-11T13:57:28;10.18;;;6.57;;
56413;SDS011;42318;48.452;19.526;2024-01-11T14:00:29;11.05;;;5.95;;
56413;SDS011;42318;48.452;19.526;2024-01-11T14:03:30;14.10;;;6.10;;
56413;SDS011;42318;48.452;19.526;2024-01-11T14:06:30;8.10;;;5.68;;
56413;SDS011;42318;48.452;19.526;2024-01-11T14:09:32;9.75;;;6.10;;
56413;SDS011;42318;48.452;19.526;2024-01-11T14:12:32;8.00;;;6.10;;
56413;SDS011;42318;48.452;19.526;2024-01-11T14:15:33;11.13;;;6.65;;
56413;SDS011;42318;48.452;19.526;2024-01-11T14:18:34;11.23;;;6.57;;
56413;SDS011;42318;48.452;19.526;2024-01-11T14:21:34;13.07;;;6.70;;
56413;SDS011;42318;48.452;19.526;2024-01-11T14:24:37;10.48;;;6.13;;
56413;SDS011;42318;48.452;19.526;2024-01-11T14:27:37;12.75;;;6.40;;
56413;SDS011;42318;48.452;19.526;2024-01-11T14:30:38;11.65;;;6.53;;
56413;SDS011;42318;48.452;19.526;2024-01-11T14:33:39;14.57;;;7.25;;
56413;SDS011;42318;48.452;19.526;2024-01-11T14:36:39;11.57;;;7.07;;
56413;SDS011;42318;48.452;19.526;2024-01-11T14:39:40;10.85;;;6.95;;
56413;SDS011;42318;48.452;19.526;2024-01-11T14:42:41;12.82;;;6.78;;
56413;SDS011;42318;48.452;19.526;2024-01-11T14:45:41;9.27;;;6.40;;
56413;SDS011;42318;48.452;19.526;2024-01-11T14:48:43;12.32;;;6.80;;
56413;SDS011;42318;48.452;19.526;2024-01-11T14:51:43;10.80;;;6.30;;
56413;SDS011;42318;48.452;19.526;2024-01-11T14:54:44;9.85;;;6.95;;
56413;SDS011;42318;48.452;19.526;2024-01-11T14:57:45;8.63;;;6.40;;
56413;SDS011;42318;48.452;19.526;2024-01-11T15:00:46;12.18;;;7.50;;
56413;SDS011;42318;48.452;19.526;2024-01-11T15:03:47;10.55;;;7.10;;
56413;SDS011;42318;48.452;19.526;2024-01-11T15:06:48;12.73;;;7.25;;
56413;SDS011;42318;48.452;19.526;2024-01-11T15:09:48;10.95;;;6.70;;
56413;SDS011;42318;48.452;19.526;2024-01-11T15:12:49;11.13;;;6.72;;
56413;SDS011;42318;48.452;19.526;2024-01-11T15:15:50;9.80;;;6.32;;
56413;SDS011;42318;48.452;19.526;2024-01-11T15:18:51;14.80;;;7.70;;
56413;SDS011;42318;48.452;19.526;2024-01-11T15:21:51;10.13;;;6.53;;
56413;SDS011;42318;48.452;19.526;2024-01-11T15:24:52;11.63;;;7.10;;
56413;SDS011;42318;48.452;19.526;2024-01-11T15:27:55;12.68;;;7.13;;
56413;SDS011;42318;48.452;19.526;2024-01-11T15:30:56;8.70;;;6.28;;
56413;SDS011;42318;48.452;19.526;2024-01-11T15:33:56;14.43;;;7.25;;
56413;SDS011;42318;48.452;19.526;2024-01-11T15:36:58;12.73;;;7.68;;
56413;SDS011;42318;48.452;19.526;2024-01-11T15:39:59;8.88;;;7.32;;
56413;SDS011;42318;48.452;19.526;2024-01-11T15:43:00;13.65;;;6.90;;
56413;SDS011;42318;48.452;19.526;2024-01-11T15:46:01;10.68;;;7.05;;
56413;SDS011;42318;48.452;19.526;2024-01-11T15:49:03;12.82;;;7.45;;
56413;SDS011;42318;48.452;19.526;2024-01-11T15:52:03;10.20;;;7.30;;
56413;SDS011;42318;48.452;19.526;2024-01-11T15:55:05;9.00;;;6.68;;
56413;SDS011;42318;48.452;19.526;2024-01-11T15:58:09;10.60;;;7.10;;
56413;SDS011;42318;48.452;19.526;2024-01-11T16:01:09;13.25;;;7.32;;
56413;SDS011;42318;48.452;19.526;2024-01-11T16:04:10;11.20;;;7.13;;
56413;SDS011;42318;48.452;19.526;2024-01-11T16:07:11;14.63;;;8.07;;
56413;SDS011;42318;48.452;19.526;2024-01-11T16:10:11;11.60;;;7.60;;
56413;SDS011;42318;48.452;19.526;2024-01-11T16:13:12;13.15;;;7.63;;
56413;SDS011;42318;48.452;19.526;2024-01-11T16:16:13;10.43;;;7.50;;
56413;SDS011;42318;48.452;19.526;2024-01-11T16:19:13;11.90;;;7.60;;
56413;SDS011;42318;48.452;19.526;2024-01-11T16:22:14;12.45;;;7.35;;
56413;SDS011;42318;48.452;19.526;2024-01-11T16:25:15;10.65;;;7.88;;
56413;SDS011;42318;48.452;19.526;2024-01-11T16:28:16;8.90;;;7.40;;
56413;SDS011;42318;48.452;19.526;2024-01-11T16:31:18;12.48;;;8.23;;
56413;SDS011;42318;48.452;19.526;2024-01-11T16:34:19;11.00;;;7.93;;
56413;SDS011;42318;48.452;19.526;2024-01-11T16:37:20;11.07;;;7.60;;
56413;SDS011;42318;48.452;19.526;2024-01-11T16:40:21;12.18;;;8.07;;
56413;SDS011;42318;48.452;19.526;2024-01-11T16:43:23;12.38;;;8.77;;
56413;SDS011;42318;48.452;19.526;2024-01-11T16:46:23;11.02;;;7.82;;
56413;SDS011;42318;48.452;19.526;2024-01-11T16:49:24;10.18;;;8.60;;
56413;SDS011;42318;48.452;19.526;2024-01-11T16:52:25;13.23;;;8.23;;
56413;SDS011;42318;48.452;19.526;2024-01-11T16:55:26;12.63;;;8.25;;
56413;SDS011;42318;48.452;19.526;2024-01-11T16:58:26;11.48;;;7.82;;
56413;SDS011;42318;48.452;19.526;2024-01-11T17:01:27;13.35;;;7.82;;
56413;SDS011;42318;48.452;19.526;2024-01-11T17:04:28;9.95;;;7.72;;
56413;SDS011;42318;48.452;19.526;2024-01-11T17:07:29;10.63;;;8.07;;
56413;SDS011;42318;48.452;19.526;2024-01-11T17:10:29;10.80;;;8.20;;
56413;SDS011;42318;48.452;19.526;2024-01-11T17:13:30;10.68;;;8.05;;
56413;SDS011;42318;48.452;19.526;2024-01-11T17:16:30;13.95;;;9.32;;
56413;SDS011;42318;48.452;19.526;2024-01-11T17:19:31;11.20;;;8.80;;
56413;SDS011;42318;48.452;19.526;2024-01-11T17:22:33;15.45;;;8.60;;
56413;SDS011;42318;48.452;19.526;2024-01-11T17:25:34;12.60;;;9.15;;
56413;SDS011;42318;48.452;19.526;2024-01-11T17:28:34;11.20;;;8.52;;
56413;SDS011;42318;48.452;19.526;2024-01-11T17:31:35;13.02;;;8.82;;
56413;SDS011;42318;48.452;19.526;2024-01-11T17:34:39;11.07;;;8.97;;
56413;SDS011;42318;48.452;19.526;2024-01-11T17:37:40;13.30;;;8.95;;
56413;SDS011;42318;48.452;19.526;2024-01-11T17:40:41;15.25;;;9.23;;
56413;SDS011;42318;48.452;19.526;2024-01-11T17:43:41;12.40;;;8.98;;
56413;SDS011;42318;48.452;19.526;2024-01-11T17:46:43;12.60;;;8.52;;
56413;SDS011;42318;48.452;19.526;2024-01-11T17:49:44;12.15;;;9.20;;
56413;SDS011;42318;48.452;19.526;2024-01-11T17:52:45;13.30;;;9.23;;